Terminal Aerodrome Forecast
Issued by NWS

Home | Current Version | Previous Version | Text Only | Print | Product List | Glossary On
Versions: 1 2 3 4 5 6 7 8 9 10 11 12 13 14 15 16 17 18 19
945
FTUS43 KDTX 080542
TAFMBS
TAF
KMBS 080542Z 0806/0906 26015G25KT P6SM OVC025
      TEMPO 0806/0808 OVC035
     FM081400 26015G25KT P6SM -SHSN OVC025
     FM082100 27015G25KT P6SM BKN035 OVC080
     FM090200 28013KT P6SM BKN035=

USA.gov is the U.S. government's official web portal to all federal, state and local government web resources and services.